Nearby METAR Reports

 

K1V6 - Canon City, Colorado, USA
Distance from station: NE 34mi, 55km
Updated: 02/21/2024 4:35pm MST
Clear
Clear
 Wind from WNW
Wind: WNW 15 mph , 24 km/h, Gust: 31 mph , 50 km/h
Temperature: 59°F , 15°C
Dew Point: 16°F , -9°C
Humidity: 18%
Barometer: 29.84 inHg , 1010.5 hPa
Clouds: Clear
Visibility: 10 miles , 16 km
2024/02/21 23:35 K1V6 212335Z AUTO 30013G27KT 10SM CLR 15/M09 A2984 RMK AO2
K04V - Saguache Muni, Colorado, USA
Distance from station: W 35mi, 56km
Updated: 02/21/2024 4:35pm MST
Mostly cloudy
Mostly cloudy
 Wind from WNW
Wind: WNW 3 mph , 6 km/h
Temperature: 46°F , 8°C
Dew Point: 9°F , -13°C
Humidity: 21%
Barometer: 29.98 inHg , 1015.2 hPa
Clouds: Mostly cloudy
Visibility: 10 miles , 16 km
Cloud details: Mostly cloudy 10000 ft
2024/02/21 23:35 K04V 212335Z AUTO 29003KT 10SM BKN100 08/M13 A2998 RMK AO2
 
KANK - Salida, Colorado, USA
Distance from station: NW 43mi, 69km
Updated: 02/21/2024 4:35pm MST
Clear
Clear
 Wind from W
Wind: W 15 mph , 24 km/h, Gust: 22 mph , 35 km/h
Temperature: 45°F , 7°C
Wind Chill: 38°F , 3°C
Dew Point: 5°F , -15°C
Humidity: 19%
Barometer: 29.92 inHg , 1013.2 hPa
Clouds: Clear
Visibility: 9 miles , 14 km
2024/02/21 23:35 KANK 212335Z AUTO 26013G19KT 9SM CLR 07/M15 A2992 RMK AO2 PK WND 24026/2322 T00721147
KVTP - La Veta Pass, Colorado, USA
Distance from station: SSE 44mi, 71km
Updated: 02/21/2024 4:35pm MST
Clear
Clear
 Wind from W
Wind: W 9 mph , 15 km/h, Gust: 25 mph , 41 km/h
Temperature: 32°F , 0°C
Wind Chill: 24°F , -4°C
Dew Point: 5°F , -15°C
Humidity: 32%
Barometer: 30.10 inHg , 1019.3 hPa
Clouds: Clear
Visibility: 10 miles , 16 km
2024/02/21 23:35 KVTP 212335Z AUTO 27008G22KT 10SM CLR 00/M15 A3010 RMK AO2
 
KALS - Alamosa, Colorado, USA
Distance from station: SSW 48mi, 77km
Updated: 02/21/2024 3:52pm MST
Clear
Clear
 Wind from W
Wind: W 17 mph , 28 km/h, Gust: 28 mph , 44 km/h
Temperature: 48°F , 9°C
Wind Chill: 42°F , 6°C
Dew Point: 9°F , -13°C
Humidity: 20%
Barometer: 29.96 inHg , 1014.6 hPa
Clouds: Clear
Visibility: 10 miles , 16 km
2024/02/21 22:52 KALS 212252Z AUTO 28015G24KT 10SM CLR 09/M13 A2996 RMK AO2 PK WND 26036/2201 SLP102 T00941128